createdAt,value
2023-03-15T00:03:58.664Z,1.30
2023-03-15T00:09:01.685Z,1.40
2023-03-15T00:14:03.605Z,1.60
2023-03-15T00:19:05.596Z,2.40
2023-03-15T00:24:07.766Z,4.20
2023-03-15T00:29:10.385Z,2.80
2023-03-15T00:34:14.085Z,2.70
2023-03-15T00:39:16.293Z,3.60
2023-03-15T00:44:18.078Z,2.60
2023-03-15T00:49:20.876Z,2.40
2023-03-15T00:54:24.613Z,1.30
2023-03-15T00:59:37.420Z,2.30
2023-03-15T01:04:39.821Z,1.20
2023-03-15T01:09:44.156Z,3.10
2023-03-15T01:14:47.638Z,2.00
2023-03-15T01:19:52.087Z,2.70
2023-03-15T01:24:55.138Z,4.10
2023-03-15T01:29:57.840Z,3.40
2023-03-15T01:35:00.735Z,3.00
2023-03-15T01:40:06.585Z,3.40
2023-03-15T01:45:48.863Z,4.70
2023-03-15T01:50:54.293Z,4.00
2023-03-15T01:55:58.271Z,4.00
2023-03-15T02:01:01.628Z,4.90
2023-03-15T02:06:09.602Z,4.20
2023-03-15T02:11:14.484Z,4.20
2023-03-15T02:16:19.746Z,16.80
2023-03-15T02:21:55.315Z,6.50
2023-03-15T02:26:58.530Z,6.30
2023-03-15T02:32:04.642Z,5.80
2023-03-15T02:37:07.932Z,5.50
2023-03-15T02:42:11.292Z,5.60
2023-03-15T02:47:19.417Z,4.10
2023-03-15T02:52:23.330Z,4.50
2023-03-15T02:57:25.708Z,3.60
2023-03-15T03:02:28.755Z,4.00
2023-03-15T03:07:32.291Z,3.90
2023-03-15T03:12:34.139Z,3.50
2023-03-15T03:17:37.276Z,4.10
2023-03-15T03:22:41.860Z,4.50
2023-03-15T03:27:43.883Z,3.00
2023-03-15T03:32:45.833Z,2.50
2023-03-15T03:37:48.470Z,3.80
2023-03-15T03:42:50.715Z,3.20
2023-03-15T03:47:54.243Z,2.80
2023-03-15T03:52:56.322Z,3.20
2023-03-15T03:57:58.126Z,3.20
2023-03-15T04:03:02.033Z,3.60
2023-03-15T04:08:05.626Z,2.50
2023-03-15T04:13:08.867Z,3.00
2023-03-15T04:18:12.499Z,3.10
2023-03-15T04:23:22.076Z,2.90
2023-03-15T04:28:24.915Z,2.40
2023-03-15T04:33:32.877Z,4.20
2023-03-15T04:38:35.495Z,2.40
2023-03-15T04:43:38.936Z,2.40
2023-03-15T04:48:41.168Z,2.30
2023-03-15T04:53:43.555Z,3.00
2023-03-15T04:58:46.040Z,3.60
2023-03-15T05:03:49.165Z,5.00
2023-03-15T05:08:52.334Z,3.10
2023-03-15T05:13:55.575Z,3.60
2023-03-15T05:18:57.927Z,2.40
2023-03-15T05:24:00.011Z,2.10
2023-03-15T05:29:03.633Z,3.00
2023-03-15T05:34:06.891Z,2.50
2023-03-15T05:39:09.849Z,3.40
2023-03-15T05:44:11.927Z,3.10
2023-03-15T05:49:14.355Z,2.80
2023-03-15T05:54:17.286Z,2.30
2023-03-15T05:59:20.174Z,3.30
2023-03-15T06:04:23.753Z,2.40
2023-03-15T06:09:26.359Z,2.70
2023-03-15T06:14:29.034Z,2.60
2023-03-15T06:19:31.380Z,2.30
2023-03-15T06:24:34.156Z,2.70
2023-03-15T06:29:36.576Z,1.80
2023-03-15T06:34:38.885Z,2.80
2023-03-15T06:39:41.250Z,2.00
2023-03-15T06:44:44.221Z,1.90
2023-03-15T06:49:50.411Z,2.60
2023-03-15T06:54:53.055Z,2.10
2023-03-15T06:59:57.188Z,2.30
2023-03-15T07:04:59.681Z,2.50
2023-03-15T07:10:02.318Z,3.30
2023-03-15T07:15:05.567Z,2.50
2023-03-15T07:20:09.234Z,2.30
2023-03-15T07:25:11.819Z,2.80
2023-03-15T07:30:14.550Z,2.60
2023-03-15T07:35:17.983Z,4.30
2023-03-15T07:40:21.912Z,3.10
2023-03-15T07:45:24.087Z,4.10
2023-03-15T07:50:27.027Z,2.70
2023-03-15T07:55:29.412Z,2.80
2023-03-15T08:00:32.244Z,2.60
2023-03-15T08:05:35.617Z,3.00
2023-03-15T08:10:38.030Z,3.00
2023-03-15T08:15:42.095Z,2.50
2023-03-15T08:20:46.436Z,6.50
2023-03-15T08:25:49.849Z,3.40
2023-03-15T08:30:52.243Z,4.00
2023-03-15T08:35:54.628Z,2.30
2023-03-15T08:40:57.939Z,2.80
2023-03-15T08:46:01.935Z,2.50
2023-03-15T08:51:07.926Z,3.50
2023-03-15T08:56:11.211Z,3.10
2023-03-15T09:01:16.164Z,2.90
2023-03-15T09:06:18.954Z,2.40
2023-03-15T09:11:22.360Z,2.80
2023-03-15T09:16:25.142Z,2.60
2023-03-15T09:21:28.421Z,2.80
2023-03-15T09:26:30.828Z,3.30
2023-03-15T09:31:32.886Z,4.20
2023-03-15T09:36:35.310Z,2.50
2023-03-15T09:41:54.891Z,3.30
2023-03-15T09:47:09.902Z,2.80
2023-03-15T09:52:43.928Z,4.20
2023-03-15T10:03:48.426Z,2.30
2023-03-15T10:08:57.357Z,2.50
2023-03-15T10:14:22.577Z,3.00
2023-03-15T10:19:27.527Z,3.00
2023-03-15T10:24:50.088Z,3.50
2023-03-15T10:29:58.875Z,2.10
2023-03-15T10:35:10.132Z,2.90
2023-03-15T10:40:19.506Z,1.70
2023-03-15T10:45:26.550Z,2.30
2023-03-15T10:50:35.525Z,2.10
2023-03-15T10:55:47.229Z,1.00
2023-03-15T11:00:59.503Z,1.60
2023-03-15T11:06:19.077Z,1.70
2023-03-15T11:11:22.515Z,1.60
2023-03-15T11:16:26.401Z,2.30
2023-03-15T11:21:35.931Z,1.90
2023-03-15T11:26:41.790Z,1.80
2023-03-15T11:31:46.004Z,1.60
2023-03-15T11:37:07.521Z,1.20
2023-03-15T11:42:21.072Z,3.00
2023-03-15T11:47:38.266Z,1.50
2023-03-15T11:52:43.658Z,1.90
2023-03-15T11:57:49.825Z,3.40
2023-03-15T12:02:59.638Z,1.40
2023-03-15T12:08:25.639Z,1.40
2023-03-15T12:13:32.531Z,1.20
2023-03-15T12:18:46.598Z,2.20
2023-03-15T12:24:07.593Z,1.40
2023-03-15T12:29:14.549Z,1.90
2023-03-15T12:34:40.255Z,1.80
2023-03-15T12:40:01.407Z,1.80
2023-03-15T12:45:18.169Z,2.20
2023-03-15T12:50:54.127Z,2.00
2023-03-15T12:56:20.829Z,1.50
2023-03-15T13:01:26.395Z,1.60
2023-03-15T13:06:52.683Z,1.40
2023-03-15T13:12:09.133Z,1.80
2023-03-15T13:17:50.345Z,1.30
2023-03-15T13:22:58.333Z,2.10
2023-03-15T13:28:23.341Z,4.20
2023-03-15T13:33:32.101Z,3.50
2023-03-15T13:38:45.707Z,1.70
2023-03-15T13:43:53.920Z,2.20
2023-03-15T13:49:01.386Z,2.60
2023-03-15T13:54:21.493Z,1.80
2023-03-15T13:59:33.951Z,1.60
2023-03-15T14:04:38.863Z,1.90
2023-03-15T14:09:43.041Z,2.40
2023-03-15T14:14:52.417Z,2.70
2023-03-15T14:20:10.306Z,1.80
2023-03-15T14:25:23.600Z,2.00
2023-03-15T14:30:36.465Z,1.20
2023-03-15T14:35:46.298Z,2.60
2023-03-15T14:40:52.375Z,1.70
2023-03-15T14:45:56.038Z,1.70
2023-03-15T14:51:00.283Z,9.90
2023-03-15T14:56:06.341Z,27.90
2023-03-15T15:01:23.049Z,11.10
2023-03-15T15:06:29.189Z,3.50
2023-03-15T15:11:33.711Z,2.70
2023-03-15T15:16:37.982Z,2.80
2023-03-15T15:21:43.837Z,3.00
2023-03-15T15:26:49.903Z,2.80
2023-03-15T15:31:56.347Z,3.30
2023-03-15T15:37:02.465Z,2.90
2023-03-15T15:42:06.677Z,3.50
2023-03-15T15:47:11.663Z,3.20
2023-03-15T15:52:16.364Z,3.60
2023-03-15T15:57:23.165Z,2.90
2023-03-15T16:02:27.408Z,2.60
2023-03-15T16:07:31.589Z,3.20
2023-03-15T16:12:36.760Z,3.90
2023-03-15T16:17:45.204Z,3.10
2023-03-15T16:22:57.037Z,3.10
2023-03-15T16:28:04.588Z,3.80
2023-03-15T16:33:24.368Z,2.70
2023-03-15T16:38:35.998Z,2.70
2023-03-15T16:43:43.499Z,2.90
2023-03-15T16:48:51.252Z,2.90
2023-03-15T16:54:15.008Z,2.20
2023-03-15T16:59:35.406Z,2.10
2023-03-15T17:04:45.386Z,2.80
2023-03-15T17:09:57.086Z,2.40
2023-03-15T17:15:10.116Z,2.70
2023-03-15T17:20:38.396Z,3.20
2023-03-15T17:26:00.657Z,2.20
2023-03-15T17:31:25.330Z,3.00
2023-03-15T17:36:39.977Z,2.00
2023-03-15T17:41:49.026Z,2.50
2023-03-15T17:46:54.010Z,2.20
2023-03-15T17:51:59.328Z,3.10
2023-03-15T17:57:03.574Z,7.80
2023-03-15T18:02:16.334Z,5.20
2023-03-15T18:07:19.842Z,2.50
2023-03-15T18:12:26.160Z,4.30
2023-03-15T18:17:30.005Z,2.70
2023-03-15T18:22:34.079Z,2.90
2023-03-15T18:27:37.383Z,2.70
2023-03-15T18:32:41.432Z,2.50
2023-03-15T18:37:46.253Z,3.20
2023-03-15T18:42:50.412Z,4.10
2023-03-15T18:47:54.857Z,3.00
2023-03-15T18:53:00.143Z,5.70
2023-03-15T18:58:05.690Z,4.10
2023-03-15T19:03:10.202Z,4.50
2023-03-15T19:08:14.858Z,5.60
2023-03-15T19:13:19.409Z,4.90
2023-03-15T19:18:25.236Z,4.40
2023-03-15T19:23:28.888Z,6.10
2023-03-15T19:28:35.550Z,5.10
2023-03-15T19:33:40.642Z,5.70
2023-03-15T19:38:45.106Z,4.80
2023-03-15T19:43:48.740Z,5.20
2023-03-15T19:48:52.892Z,6.50
2023-03-15T19:53:57.188Z,5.80
2023-03-15T19:59:01.536Z,5.00
2023-03-15T20:04:06.228Z,8.70
2023-03-15T20:09:12.655Z,7.20
2023-03-15T20:14:17.180Z,7.10
2023-03-15T20:19:22.189Z,6.20
2023-03-15T20:24:28.477Z,6.50
2023-03-15T20:29:33.234Z,5.30
2023-03-15T20:34:40.737Z,5.20
2023-03-15T20:39:44.622Z,5.60
2023-03-15T20:44:52.021Z,5.80
2023-03-15T20:49:56.269Z,5.80
2023-03-15T20:55:01.200Z,9.10
2023-03-15T21:00:24.943Z,8.40
2023-03-15T21:05:32.702Z,7.70
2023-03-15T21:10:38.449Z,7.30
2023-03-15T21:15:48.212Z,8.10
2023-03-15T21:21:01.360Z,8.50
2023-03-15T21:26:08.181Z,7.70
2023-03-15T21:31:13.348Z,8.90
2023-03-15T21:36:18.461Z,15.30
2023-03-15T21:41:23.694Z,14.50
2023-03-15T21:46:30.648Z,13.10
2023-03-15T21:51:35.773Z,14.30
2023-03-15T21:56:41.549Z,15.10
2023-03-15T22:01:48.910Z,14.80
2023-03-15T22:06:54.023Z,14.00
2023-03-15T22:11:58.572Z,13.30
2023-03-15T22:17:05.448Z,13.00
2023-03-15T22:22:10.653Z,13.50
2023-03-15T22:27:15.959Z,11.20
2023-03-15T22:32:20.749Z,11.60
2023-03-15T22:37:25.534Z,11.90
2023-03-15T22:42:30.133Z,9.40
2023-03-15T22:47:35.134Z,12.20
2023-03-15T22:52:39.635Z,10.30
2023-03-15T22:57:45.307Z,11.40
2023-03-15T23:02:50.007Z,14.90
2023-03-15T23:07:54.952Z,14.60
2023-03-15T23:13:01.028Z,14.00
2023-03-15T23:18:06.046Z,13.10
2023-03-15T23:23:10.721Z,13.80
2023-03-15T23:28:19.952Z,13.70
2023-03-15T23:33:26.135Z,14.60
2023-03-15T23:38:31.159Z,13.40
2023-03-15T23:43:36.111Z,13.70
2023-03-15T23:48:42.373Z,14.20
2023-03-15T23:53:46.071Z,11.60
2023-03-15T23:58:50.308Z,11.40
